sensor_id;sensor_type;location;lat;lon;timestamp;P1;durP1;ratioP1;P2;durP2;ratioP2
14472;SDS011;7322;50.872;4.386;2022-11-30T00:04:56;5.20;;;4.70;;
14472;SDS011;7322;50.872;4.386;2022-11-30T00:07:30;5.23;;;4.50;;
14472;SDS011;7322;50.872;4.386;2022-11-30T00:13:10;5.03;;;4.53;;
14472;SDS011;7322;50.872;4.386;2022-11-30T00:15:39;4.97;;;4.20;;
14472;SDS011;7322;50.872;4.386;2022-11-30T00:18:13;5.90;;;4.50;;
14472;SDS011;7322;50.872;4.386;2022-11-30T00:20:48;4.83;;;4.20;;
14472;SDS011;7322;50.872;4.386;2022-11-30T00:23:17;6.50;;;4.30;;
14472;SDS011;7322;50.872;4.386;2022-11-30T00:25:44;4.70;;;4.17;;
14472;SDS011;7322;50.872;4.386;2022-11-30T00:28:12;5.97;;;4.40;;
14472;SDS011;7322;50.872;4.386;2022-11-30T00:30:43;6.03;;;4.70;;
14472;SDS011;7322;50.872;4.386;2022-11-30T00:33:11;5.47;;;4.37;;
14472;SDS011;7322;50.872;4.386;2022-11-30T00:35:39;4.60;;;4.10;;
14472;SDS011;7322;50.872;4.386;2022-11-30T00:38:13;4.13;;;3.73;;
14472;SDS011;7322;50.872;4.386;2022-11-30T00:40:40;4.20;;;3.63;;
14472;SDS011;7322;50.872;4.386;2022-11-30T00:43:21;4.87;;;4.20;;
14472;SDS011;7322;50.872;4.386;2022-11-30T00:45:48;5.03;;;4.53;;
14472;SDS011;7322;50.872;4.386;2022-11-30T00:48:26;5.70;;;4.40;;
14472;SDS011;7322;50.872;4.386;2022-11-30T00:50:55;5.07;;;4.57;;
14472;SDS011;7322;50.872;4.386;2022-11-30T00:53:23;5.40;;;4.73;;
14472;SDS011;7322;50.872;4.386;2022-11-30T00:55:52;4.80;;;4.40;;
14472;SDS011;7322;50.872;4.386;2022-11-30T00:58:19;4.17;;;3.77;;
14472;SDS011;7322;50.872;4.386;2022-11-30T01:00:48;4.60;;;4.10;;
14472;SDS011;7322;50.872;4.386;2022-11-30T01:03:16;4.20;;;3.80;;
14472;SDS011;7322;50.872;4.386;2022-11-30T01:05:50;4.67;;;4.07;;
14472;SDS011;7322;50.872;4.386;2022-11-30T01:08:18;4.30;;;3.90;;
14472;SDS011;7322;50.872;4.386;2022-11-30T01:10:45;4.40;;;4.00;;
14472;SDS011;7322;50.872;4.386;2022-11-30T01:13:18;4.63;;;3.83;;
14472;SDS011;7322;50.872;4.386;2022-11-30T01:15:54;4.67;;;4.00;;
14472;SDS011;7322;50.872;4.386;2022-11-30T01:18:22;3.97;;;3.60;;
14472;SDS011;7322;50.872;4.386;2022-11-30T01:23:20;4.23;;;3.67;;
14472;SDS011;7322;50.872;4.386;2022-11-30T01:25:56;6.03;;;3.90;;
14472;SDS011;7322;50.872;4.386;2022-11-30T01:28:23;4.20;;;3.80;;
14472;SDS011;7322;50.872;4.386;2022-11-30T01:31:00;4.30;;;3.60;;
14472;SDS011;7322;50.872;4.386;2022-11-30T01:33:31;4.00;;;3.60;;
14472;SDS011;7322;50.872;4.386;2022-11-30T01:36:00;4.03;;;3.60;;
14472;SDS011;7322;50.872;4.386;2022-11-30T01:38:32;4.60;;;4.00;;
14472;SDS011;7322;50.872;4.386;2022-11-30T01:41:01;6.43;;;3.70;;
14472;SDS011;7322;50.872;4.386;2022-11-30T01:43:39;3.73;;;3.30;;
14472;SDS011;7322;50.872;4.386;2022-11-30T01:49:02;3.90;;;3.50;;
14472;SDS011;7322;50.872;4.386;2022-11-30T01:51:39;4.03;;;3.67;;
14472;SDS011;7322;50.872;4.386;2022-11-30T01:54:17;4.10;;;3.70;;
14472;SDS011;7322;50.872;4.386;2022-11-30T01:56:50;5.03;;;3.83;;
14472;SDS011;7322;50.872;4.386;2022-11-30T01:59:21;3.97;;;3.53;;
14472;SDS011;7322;50.872;4.386;2022-11-30T02:01:50;4.20;;;3.80;;
14472;SDS011;7322;50.872;4.386;2022-11-30T02:04:19;3.90;;;3.60;;
14472;SDS011;7322;50.872;4.386;2022-11-30T02:06:53;4.20;;;3.57;;
14472;SDS011;7322;50.872;4.386;2022-11-30T02:09:21;4.07;;;3.67;;
14472;SDS011;7322;50.872;4.386;2022-11-30T02:11:51;4.23;;;3.67;;
14472;SDS011;7322;50.872;4.386;2022-11-30T02:14:22;4.67;;;3.73;;
14472;SDS011;7322;50.872;4.386;2022-11-30T02:17:02;4.10;;;3.70;;
14472;SDS011;7322;50.872;4.386;2022-11-30T02:19:46;3.53;;;3.10;;
14472;SDS011;7322;50.872;4.386;2022-11-30T02:22:46;4.30;;;3.90;;
14472;SDS011;7322;50.872;4.386;2022-11-30T02:25:27;3.83;;;3.40;;
14472;SDS011;7322;50.872;4.386;2022-11-30T02:31:01;4.20;;;3.60;;
14472;SDS011;7322;50.872;4.386;2022-11-30T02:33:31;4.60;;;3.90;;
14472;SDS011;7322;50.872;4.386;2022-11-30T02:36:00;3.73;;;3.43;;
14472;SDS011;7322;50.872;4.386;2022-11-30T02:38:29;4.23;;;3.60;;
14472;SDS011;7322;50.872;4.386;2022-11-30T02:40:57;4.20;;;3.77;;
14472;SDS011;7322;50.872;4.386;2022-11-30T02:43:25;3.70;;;3.30;;
14472;SDS011;7322;50.872;4.386;2022-11-30T02:46:00;3.93;;;3.53;;
14472;SDS011;7322;50.872;4.386;2022-11-30T02:48:31;4.87;;;3.77;;
14472;SDS011;7322;50.872;4.386;2022-11-30T02:51:12;5.27;;;3.97;;
14472;SDS011;7322;50.872;4.386;2022-11-30T02:53:48;4.00;;;3.50;;
14472;SDS011;7322;50.872;4.386;2022-11-30T02:56:16;4.47;;;3.60;;
14472;SDS011;7322;50.872;4.386;2022-11-30T02:58:44;4.47;;;3.70;;
14472;SDS011;7322;50.872;4.386;2022-11-30T03:01:13;6.00;;;3.73;;
14472;SDS011;7322;50.872;4.386;2022-11-30T03:03:41;3.90;;;3.50;;
14472;SDS011;7322;50.872;4.386;2022-11-30T03:06:11;4.03;;;3.57;;
14472;SDS011;7322;50.872;4.386;2022-11-30T03:08:39;4.57;;;3.57;;
14472;SDS011;7322;50.872;4.386;2022-11-30T03:11:07;4.17;;;3.60;;
14472;SDS011;7322;50.872;4.386;2022-11-30T03:13:35;4.23;;;3.80;;
14472;SDS011;7322;50.872;4.386;2022-11-30T03:16:05;4.00;;;3.50;;
14472;SDS011;7322;50.872;4.386;2022-11-30T03:18:35;5.97;;;4.03;;
14472;SDS011;7322;50.872;4.386;2022-11-30T03:21:04;4.17;;;3.67;;
14472;SDS011;7322;50.872;4.386;2022-11-30T03:23:38;4.17;;;3.63;;
14472;SDS011;7322;50.872;4.386;2022-11-30T03:26:06;4.33;;;3.93;;
14472;SDS011;7322;50.872;4.386;2022-11-30T03:28:33;4.03;;;3.63;;
14472;SDS011;7322;50.872;4.386;2022-11-30T03:31:02;3.90;;;3.50;;
14472;SDS011;7322;50.872;4.386;2022-11-30T03:33:30;5.00;;;3.80;;
14472;SDS011;7322;50.872;4.386;2022-11-30T03:36:01;4.93;;;3.63;;
14472;SDS011;7322;50.872;4.386;2022-11-30T03:38:30;5.37;;;3.80;;
14472;SDS011;7322;50.872;4.386;2022-11-30T03:41:00;4.73;;;3.63;;
14472;SDS011;7322;50.872;4.386;2022-11-30T03:43:27;4.57;;;3.63;;
14472;SDS011;7322;50.872;4.386;2022-11-30T03:45:56;4.97;;;3.60;;
14472;SDS011;7322;50.872;4.386;2022-11-30T03:48:24;5.10;;;4.00;;
14472;SDS011;7322;50.872;4.386;2022-11-30T03:50:52;5.03;;;4.23;;
14472;SDS011;7322;50.872;4.386;2022-11-30T03:53:23;4.53;;;3.80;;
14472;SDS011;7322;50.872;4.386;2022-11-30T03:55:51;4.17;;;3.73;;
14472;SDS011;7322;50.872;4.386;2022-11-30T03:58:20;5.27;;;3.70;;
14472;SDS011;7322;50.872;4.386;2022-11-30T04:00:47;4.40;;;3.60;;
14472;SDS011;7322;50.872;4.386;2022-11-30T04:03:15;4.03;;;3.60;;
14472;SDS011;7322;50.872;4.386;2022-11-30T04:05:43;4.90;;;3.60;;
14472;SDS011;7322;50.872;4.386;2022-11-30T04:08:13;5.37;;;4.30;;
14472;SDS011;7322;50.872;4.386;2022-11-30T04:10:42;4.73;;;3.80;;
14472;SDS011;7322;50.872;4.386;2022-11-30T04:13:13;4.63;;;3.87;;
14472;SDS011;7322;50.872;4.386;2022-11-30T04:15:40;5.40;;;4.13;;
14472;SDS011;7322;50.872;4.386;2022-11-30T04:18:11;5.63;;;3.97;;
14472;SDS011;7322;50.872;4.386;2022-11-30T04:20:40;4.77;;;3.97;;
14472;SDS011;7322;50.872;4.386;2022-11-30T04:23:09;5.83;;;4.77;;
14472;SDS011;7322;50.872;4.386;2022-11-30T04:25:36;5.00;;;4.40;;
14472;SDS011;7322;50.872;4.386;2022-11-30T04:28:06;5.33;;;4.00;;
14472;SDS011;7322;50.872;4.386;2022-11-30T04:30:34;5.03;;;4.30;;
14472;SDS011;7322;50.872;4.386;2022-11-30T04:33:03;5.97;;;4.43;;
14472;SDS011;7322;50.872;4.386;2022-11-30T04:35:33;5.63;;;4.60;;
14472;SDS011;7322;50.872;4.386;2022-11-30T04:38:06;6.10;;;4.53;;
14472;SDS011;7322;50.872;4.386;2022-11-30T04:40:33;4.90;;;4.00;;
14472;SDS011;7322;50.872;4.386;2022-11-30T04:43:00;5.13;;;4.17;;
14472;SDS011;7322;50.872;4.386;2022-11-30T04:45:30;4.73;;;4.20;;
14472;SDS011;7322;50.872;4.386;2022-11-30T04:47:57;6.07;;;4.30;;
14472;SDS011;7322;50.872;4.386;2022-11-30T04:50:24;5.43;;;4.57;;
14472;SDS011;7322;50.872;4.386;2022-11-30T04:52:51;5.80;;;4.73;;
14472;SDS011;7322;50.872;4.386;2022-11-30T04:55:18;4.90;;;4.37;;
14472;SDS011;7322;50.872;4.386;2022-11-30T04:57:45;6.53;;;4.70;;
14472;SDS011;7322;50.872;4.386;2022-11-30T05:00:13;6.03;;;4.53;;
14472;SDS011;7322;50.872;4.386;2022-11-30T05:02:46;6.50;;;4.60;;
14472;SDS011;7322;50.872;4.386;2022-11-30T05:05:15;7.50;;;4.70;;
14472;SDS011;7322;50.872;4.386;2022-11-30T05:07:43;5.00;;;4.33;;
14472;SDS011;7322;50.872;4.386;2022-11-30T05:10:15;5.40;;;4.60;;
14472;SDS011;7322;50.872;4.386;2022-11-30T05:12:45;6.20;;;4.90;;
14472;SDS011;7322;50.872;4.386;2022-11-30T05:15:13;5.87;;;4.90;;
14472;SDS011;7322;50.872;4.386;2022-11-30T05:17:45;5.93;;;4.73;;
14472;SDS011;7322;50.872;4.386;2022-11-30T05:20:20;6.50;;;4.73;;
14472;SDS011;7322;50.872;4.386;2022-11-30T05:22:49;5.03;;;4.47;;
14472;SDS011;7322;50.872;4.386;2022-11-30T05:27:56;5.50;;;4.73;;
14472;SDS011;7322;50.872;4.386;2022-11-30T05:30:23;5.47;;;4.77;;
14472;SDS011;7322;50.872;4.386;2022-11-30T05:32:52;5.60;;;4.87;;
14472;SDS011;7322;50.872;4.386;2022-11-30T05:35:21;5.63;;;4.73;;
14472;SDS011;7322;50.872;4.386;2022-11-30T05:37:49;7.40;;;5.53;;
14472;SDS011;7322;50.872;4.386;2022-11-30T05:40:17;5.90;;;4.63;;
14472;SDS011;7322;50.872;4.386;2022-11-30T05:42:44;6.10;;;5.17;;
14472;SDS011;7322;50.872;4.386;2022-11-30T05:45:14;6.10;;;5.33;;
14472;SDS011;7322;50.872;4.386;2022-11-30T05:47:44;7.23;;;5.20;;
14472;SDS011;7322;50.872;4.386;2022-11-30T05:50:13;8.23;;;5.67;;
14472;SDS011;7322;50.872;4.386;2022-11-30T05:52:48;6.50;;;5.07;;
14472;SDS011;7322;50.872;4.386;2022-11-30T05:55:27;7.10;;;5.60;;
14472;SDS011;7322;50.872;4.386;2022-11-30T06:00:29;8.17;;;5.00;;
14472;SDS011;7322;50.872;4.386;2022-11-30T06:02:58;7.23;;;5.40;;
14472;SDS011;7322;50.872;4.386;2022-11-30T06:05:27;6.90;;;5.27;;
14472;SDS011;7322;50.872;4.386;2022-11-30T06:08:12;6.53;;;4.93;;
14472;SDS011;7322;50.872;4.386;2022-11-30T06:10:46;7.07;;;5.17;;
14472;SDS011;7322;50.872;4.386;2022-11-30T06:13:17;7.03;;;5.40;;
14472;SDS011;7322;50.872;4.386;2022-11-30T06:15:44;8.53;;;5.70;;
14472;SDS011;7322;50.872;4.386;2022-11-30T06:18:12;7.07;;;5.13;;
14472;SDS011;7322;50.872;4.386;2022-11-30T06:20:42;7.93;;;5.43;;
14472;SDS011;7322;50.872;4.386;2022-11-30T06:23:15;7.90;;;5.60;;
14472;SDS011;7322;50.872;4.386;2022-11-30T06:28:16;6.13;;;5.23;;
14472;SDS011;7322;50.872;4.386;2022-11-30T06:30:56;8.00;;;5.70;;
14472;SDS011;7322;50.872;4.386;2022-11-30T06:33:25;8.47;;;5.83;;
14472;SDS011;7322;50.872;4.386;2022-11-30T06:38:36;8.00;;;5.77;;
14472;SDS011;7322;50.872;4.386;2022-11-30T06:41:06;8.63;;;5.93;;
14472;SDS011;7322;50.872;4.386;2022-11-30T06:43:34;10.27;;;6.37;;
14472;SDS011;7322;50.872;4.386;2022-11-30T06:46:10;10.40;;;6.03;;
14472;SDS011;7322;50.872;4.386;2022-11-30T06:48:46;9.83;;;5.90;;
14472;SDS011;7322;50.872;4.386;2022-11-30T06:51:17;18.50;;;6.23;;
14472;SDS011;7322;50.872;4.386;2022-11-30T06:53:53;8.43;;;5.80;;
14472;SDS011;7322;50.872;4.386;2022-11-30T06:56:31;7.73;;;5.97;;
14472;SDS011;7322;50.872;4.386;2022-11-30T06:59:09;10.30;;;6.30;;
14472;SDS011;7322;50.872;4.386;2022-11-30T07:01:38;14.80;;;6.03;;
14472;SDS011;7322;50.872;4.386;2022-11-30T07:04:12;8.10;;;6.03;;
14472;SDS011;7322;50.872;4.386;2022-11-30T07:06:41;12.90;;;5.90;;
14472;SDS011;7322;50.872;4.386;2022-11-30T07:09:10;10.77;;;6.07;;
14472;SDS011;7322;50.872;4.386;2022-11-30T07:11:37;10.90;;;6.40;;
14472;SDS011;7322;50.872;4.386;2022-11-30T07:14:05;11.07;;;6.13;;
14472;SDS011;7322;50.872;4.386;2022-11-30T07:16:32;13.40;;;6.90;;
14472;SDS011;7322;50.872;4.386;2022-11-30T07:18:59;9.80;;;5.87;;
14472;SDS011;7322;50.872;4.386;2022-11-30T07:21:28;10.97;;;6.40;;
14472;SDS011;7322;50.872;4.386;2022-11-30T07:23:58;13.40;;;6.57;;
14472;SDS011;7322;50.872;4.386;2022-11-30T07:26:42;12.13;;;6.80;;
14472;SDS011;7322;50.872;4.386;2022-11-30T07:29:16;13.33;;;6.27;;
14472;SDS011;7322;50.872;4.386;2022-11-30T07:31:48;11.70;;;6.67;;
14472;SDS011;7322;50.872;4.386;2022-11-30T07:34:22;14.20;;;6.83;;
14472;SDS011;7322;50.872;4.386;2022-11-30T07:36:48;17.17;;;6.83;;
14472;SDS011;7322;50.872;4.386;2022-11-30T07:39:18;13.13;;;6.70;;
14472;SDS011;7322;50.872;4.386;2022-11-30T07:41:49;14.43;;;7.30;;
14472;SDS011;7322;50.872;4.386;2022-11-30T07:44:18;13.97;;;6.67;;
14472;SDS011;7322;50.872;4.386;2022-11-30T07:46:50;14.53;;;7.37;;
14472;SDS011;7322;50.872;4.386;2022-11-30T07:49:18;16.30;;;7.13;;
14472;SDS011;7322;50.872;4.386;2022-11-30T07:51:45;14.23;;;7.23;;
14472;SDS011;7322;50.872;4.386;2022-11-30T07:54:12;14.27;;;6.97;;
14472;SDS011;7322;50.872;4.386;2022-11-30T07:56:41;13.13;;;7.10;;
14472;SDS011;7322;50.872;4.386;2022-11-30T07:59:08;14.47;;;7.50;;
14472;SDS011;7322;50.872;4.386;2022-11-30T08:01:36;8.67;;;6.73;;
14472;SDS011;7322;50.872;4.386;2022-11-30T08:04:03;12.23;;;7.50;;
14472;SDS011;7322;50.872;4.386;2022-11-30T08:06:30;13.80;;;7.47;;
14472;SDS011;7322;50.872;4.386;2022-11-30T08:08:58;13.07;;;6.90;;
14472;SDS011;7322;50.872;4.386;2022-11-30T08:11:27;11.70;;;7.27;;
14472;SDS011;7322;50.872;4.386;2022-11-30T08:14:03;13.07;;;6.63;;
14472;SDS011;7322;50.872;4.386;2022-11-30T08:22:33;10.60;;;6.70;;
14472;SDS011;7322;50.872;4.386;2022-11-30T08:25:00;12.13;;;7.00;;
14472;SDS011;7322;50.872;4.386;2022-11-30T08:27:28;10.13;;;6.27;;
14472;SDS011;7322;50.872;4.386;2022-11-30T08:29:57;12.27;;;6.77;;
14472;SDS011;7322;50.872;4.386;2022-11-30T08:32:24;10.47;;;6.27;;
14472;SDS011;7322;50.872;4.386;2022-11-30T08:34:52;11.47;;;7.10;;
14472;SDS011;7322;50.872;4.386;2022-11-30T08:37:21;10.37;;;6.53;;
14472;SDS011;7322;50.872;4.386;2022-11-30T08:39:48;10.57;;;6.53;;
14472;SDS011;7322;50.872;4.386;2022-11-30T08:42:15;11.63;;;6.57;;
14472;SDS011;7322;50.872;4.386;2022-11-30T08:44:41;11.03;;;6.77;;
14472;SDS011;7322;50.872;4.386;2022-11-30T08:47:10;11.33;;;6.90;;
14472;SDS011;7322;50.872;4.386;2022-11-30T08:49:37;10.33;;;6.37;;
14472;SDS011;7322;50.872;4.386;2022-11-30T08:52:04;9.30;;;6.30;;
14472;SDS011;7322;50.872;4.386;2022-11-30T08:54:31;7.50;;;6.23;;
14472;SDS011;7322;50.872;4.386;2022-11-30T08:56:58;10.90;;;6.47;;
14472;SDS011;7322;50.872;4.386;2022-11-30T08:59:24;15.43;;;7.23;;
14472;SDS011;7322;50.872;4.386;2022-11-30T09:01:52;11.60;;;7.40;;
14472;SDS011;7322;50.872;4.386;2022-11-30T09:04:22;10.30;;;6.63;;
14472;SDS011;7322;50.872;4.386;2022-11-30T09:06:49;9.93;;;6.90;;
14472;SDS011;7322;50.872;4.386;2022-11-30T09:09:17;9.83;;;7.20;;
14472;SDS011;7322;50.872;4.386;2022-11-30T09:11:45;10.00;;;7.07;;
14472;SDS011;7322;50.872;4.386;2022-11-30T09:14:11;11.43;;;7.10;;
14472;SDS011;7322;50.872;4.386;2022-11-30T09:16:38;9.43;;;6.77;;
14472;SDS011;7322;50.872;4.386;2022-11-30T09:19:05;9.40;;;6.43;;
14472;SDS011;7322;50.872;4.386;2022-11-30T09:21:35;10.70;;;7.10;;
14472;SDS011;7322;50.872;4.386;2022-11-30T09:24:02;9.03;;;7.07;;
14472;SDS011;7322;50.872;4.386;2022-11-30T09:26:29;11.53;;;7.20;;
14472;SDS011;7322;50.872;4.386;2022-11-30T09:28:56;9.03;;;6.53;;
14472;SDS011;7322;50.872;4.386;2022-11-30T09:31:23;9.83;;;7.00;;
14472;SDS011;7322;50.872;4.386;2022-11-30T09:33:52;11.23;;;8.10;;
14472;SDS011;7322;50.872;4.386;2022-11-30T09:36:20;9.57;;;7.00;;
14472;SDS011;7322;50.872;4.386;2022-11-30T09:38:52;8.20;;;7.07;;
14472;SDS011;7322;50.872;4.386;2022-11-30T09:44:24;8.97;;;6.80;;
14472;SDS011;7322;50.872;4.386;2022-11-30T09:47:03;10.77;;;6.80;;
14472;SDS011;7322;50.872;4.386;2022-11-30T09:49:38;10.27;;;7.57;;
14472;SDS011;7322;50.872;4.386;2022-11-30T09:52:08;10.47;;;6.77;;
14472;SDS011;7322;50.872;4.386;2022-11-30T09:54:43;10.00;;;6.67;;
14472;SDS011;7322;50.872;4.386;2022-11-30T09:57:15;7.60;;;6.60;;
14472;SDS011;7322;50.872;4.386;2022-11-30T09:59:50;8.30;;;6.67;;
14472;SDS011;7322;50.872;4.386;2022-11-30T10:02:21;9.83;;;7.03;;
14472;SDS011;7322;50.872;4.386;2022-11-30T10:04:53;9.53;;;6.67;;
14472;SDS011;7322;50.872;4.386;2022-11-30T10:07:33;9.87;;;7.07;;
14472;SDS011;7322;50.872;4.386;2022-11-30T10:10:13;9.40;;;6.97;;
14472;SDS011;7322;50.872;4.386;2022-11-30T10:12:49;8.93;;;6.70;;
14472;SDS011;7322;50.872;4.386;2022-11-30T10:15:26;8.53;;;6.97;;
14472;SDS011;7322;50.872;4.386;2022-11-30T10:18:02;8.70;;;6.77;;
14472;SDS011;7322;50.872;4.386;2022-11-30T10:20:45;8.10;;;6.67;;
14472;SDS011;7322;50.872;4.386;2022-11-30T10:23:25;8.07;;;6.73;;
14472;SDS011;7322;50.872;4.386;2022-11-30T10:26:06;9.50;;;6.73;;
14472;SDS011;7322;50.872;4.386;2022-11-30T10:28:39;8.97;;;6.90;;
14472;SDS011;7322;50.872;4.386;2022-11-30T10:31:13;8.83;;;7.43;;
14472;SDS011;7322;50.872;4.386;2022-11-30T10:36:23;8.77;;;6.93;;
14472;SDS011;7322;50.872;4.386;2022-11-30T10:39:05;9.27;;;6.70;;
14472;SDS011;7322;50.872;4.386;2022-11-30T10:41:49;8.60;;;6.57;;
14472;SDS011;7322;50.872;4.386;2022-11-30T10:47:25;10.77;;;7.50;;
14472;SDS011;7322;50.872;4.386;2022-11-30T10:50:03;11.33;;;7.03;;
14472;SDS011;7322;50.872;4.386;2022-11-30T10:52:36;10.27;;;7.00;;
14472;SDS011;7322;50.872;4.386;2022-11-30T10:55:11;8.97;;;6.77;;
14472;SDS011;7322;50.872;4.386;2022-11-30T10:57:41;7.10;;;6.40;;
14472;SDS011;7322;50.872;4.386;2022-11-30T11:00:11;12.00;;;7.90;;
14472;SDS011;7322;50.872;4.386;2022-11-30T11:02:44;9.70;;;7.03;;
14472;SDS011;7322;50.872;4.386;2022-11-30T11:05:19;8.10;;;6.30;;
14472;SDS011;7322;50.872;4.386;2022-11-30T11:07:48;10.03;;;7.13;;
14472;SDS011;7322;50.872;4.386;2022-11-30T11:10:21;10.90;;;7.57;;
14472;SDS011;7322;50.872;4.386;2022-11-30T11:12:54;12.00;;;9.00;;
14472;SDS011;7322;50.872;4.386;2022-11-30T11:15:23;9.10;;;6.93;;
14472;SDS011;7322;50.872;4.386;2022-11-30T11:20:47;12.83;;;9.57;;
14472;SDS011;7322;50.872;4.386;2022-11-30T11:23:26;10.33;;;7.60;;
14472;SDS011;7322;50.872;4.386;2022-11-30T11:25:59;8.40;;;7.00;;
14472;SDS011;7322;50.872;4.386;2022-11-30T11:28:30;10.70;;;7.50;;
14472;SDS011;7322;50.872;4.386;2022-11-30T11:31:10;9.47;;;7.17;;
14472;SDS011;7322;50.872;4.386;2022-11-30T11:33:48;10.03;;;7.40;;
14472;SDS011;7322;50.872;4.386;2022-11-30T11:36:23;10.43;;;7.43;;
14472;SDS011;7322;50.872;4.386;2022-11-30T11:38:56;8.90;;;7.37;;
14472;SDS011;7322;50.872;4.386;2022-11-30T11:41:26;14.40;;;9.50;;
14472;SDS011;7322;50.872;4.386;2022-11-30T11:44:02;9.20;;;7.43;;
14472;SDS011;7322;50.872;4.386;2022-11-30T11:46:32;7.97;;;7.00;;
14472;SDS011;7322;50.872;4.386;2022-11-30T11:49:04;11.03;;;6.93;;
14472;SDS011;7322;50.872;4.386;2022-11-30T11:51:35;10.17;;;7.57;;
14472;SDS011;7322;50.872;4.386;2022-11-30T11:54:11;12.57;;;7.63;;
14472;SDS011;7322;50.872;4.386;2022-11-30T11:56:53;9.47;;;7.37;;
14472;SDS011;7322;50.872;4.386;2022-11-30T11:59:27;9.87;;;7.60;;
14472;SDS011;7322;50.872;4.386;2022-11-30T12:05:02;11.37;;;7.50;;
14472;SDS011;7322;50.872;4.386;2022-11-30T12:07:40;10.30;;;7.67;;
14472;SDS011;7322;50.872;4.386;2022-11-30T12:10:20;8.50;;;7.37;;
14472;SDS011;7322;50.872;4.386;2022-11-30T12:12:51;9.60;;;7.83;;
14472;SDS011;7322;50.872;4.386;2022-11-30T12:15:25;9.80;;;7.37;;
14472;SDS011;7322;50.872;4.386;2022-11-30T12:17:58;9.00;;;7.53;;
14472;SDS011;7322;50.872;4.386;2022-11-30T12:20:34;8.83;;;7.30;;
14472;SDS011;7322;50.872;4.386;2022-11-30T12:23:20;9.20;;;6.97;;
14472;SDS011;7322;50.872;4.386;2022-11-30T12:26:06;9.90;;;7.33;;
14472;SDS011;7322;50.872;4.386;2022-11-30T12:28:39;11.23;;;7.00;;
14472;SDS011;7322;50.872;4.386;2022-11-30T12:31:17;9.83;;;7.37;;
14472;SDS011;7322;50.872;4.386;2022-11-30T12:33:51;9.13;;;7.37;;
14472;SDS011;7322;50.872;4.386;2022-11-30T12:45:22;9.53;;;6.90;;
14472;SDS011;7322;50.872;4.386;2022-11-30T12:47:56;9.80;;;7.23;;
14472;SDS011;7322;50.872;4.386;2022-11-30T12:50:41;7.97;;;6.80;;
14472;SDS011;7322;50.872;4.386;2022-11-30T12:53:19;7.90;;;6.93;;
14472;SDS011;7322;50.872;4.386;2022-11-30T12:55:59;9.07;;;6.57;;
14472;SDS011;7322;50.872;4.386;2022-11-30T12:58:40;8.23;;;6.80;;
14472;SDS011;7322;50.872;4.386;2022-11-30T13:01:18;10.43;;;6.60;;
14472;SDS011;7322;50.872;4.386;2022-11-30T13:03:59;7.60;;;6.43;;
14472;SDS011;7322;50.872;4.386;2022-11-30T13:09:30;7.23;;;6.23;;
14472;SDS011;7322;50.872;4.386;2022-11-30T13:14:49;7.40;;;6.40;;
14472;SDS011;7322;50.872;4.386;2022-11-30T13:17:23;8.10;;;6.50;;
14472;SDS011;7322;50.872;4.386;2022-11-30T13:19:59;8.30;;;6.60;;
14472;SDS011;7322;50.872;4.386;2022-11-30T13:22:39;7.33;;;6.50;;
14472;SDS011;7322;50.872;4.386;2022-11-30T13:25:19;9.17;;;7.10;;
14472;SDS011;7322;50.872;4.386;2022-11-30T13:27:59;7.33;;;6.10;;
14472;SDS011;7322;50.872;4.386;2022-11-30T13:30:33;9.13;;;6.90;;
14472;SDS011;7322;50.872;4.386;2022-11-30T13:36:06;7.40;;;6.23;;
14472;SDS011;7322;50.872;4.386;2022-11-30T13:41:49;9.10;;;6.87;;
14472;SDS011;7322;50.872;4.386;2022-11-30T13:44:39;7.20;;;6.03;;
14472;SDS011;7322;50.872;4.386;2022-11-30T13:47:14;7.17;;;6.23;;
14472;SDS011;7322;50.872;4.386;2022-11-30T13:49:44;8.43;;;6.70;;
14472;SDS011;7322;50.872;4.386;2022-11-30T13:52:12;7.30;;;6.57;;
14472;SDS011;7322;50.872;4.386;2022-11-30T13:54:43;8.70;;;6.60;;
14472;SDS011;7322;50.872;4.386;2022-11-30T13:57:17;7.87;;;6.53;;
14472;SDS011;7322;50.872;4.386;2022-11-30T14:00:02;8.73;;;6.40;;
14472;SDS011;7322;50.872;4.386;2022-11-30T14:03:23;7.83;;;6.37;;
14472;SDS011;7322;50.872;4.386;2022-11-30T14:06:03;8.87;;;6.90;;
14472;SDS011;7322;50.872;4.386;2022-11-30T14:08:52;8.00;;;6.23;;
14472;SDS011;7322;50.872;4.386;2022-11-30T14:17:22;7.93;;;6.53;;
14472;SDS011;7322;50.872;4.386;2022-11-30T14:19:54;8.30;;;6.03;;
14472;SDS011;7322;50.872;4.386;2022-11-30T14:30:32;8.37;;;7.13;;
14472;SDS011;7322;50.872;4.386;2022-11-30T14:33:05;8.53;;;6.97;;
14472;SDS011;7322;50.872;4.386;2022-11-30T14:35:48;8.60;;;6.70;;
14472;SDS011;7322;50.872;4.386;2022-11-30T14:38:21;9.37;;;7.70;;
14472;SDS011;7322;50.872;4.386;2022-11-30T14:40:53;12.00;;;8.43;;
14472;SDS011;7322;50.872;4.386;2022-11-30T14:46:28;14.33;;;8.23;;
14472;SDS011;7322;50.872;4.386;2022-11-30T14:49:04;10.43;;;8.30;;
14472;SDS011;7322;50.872;4.386;2022-11-30T14:51:35;11.00;;;8.33;;
14472;SDS011;7322;50.872;4.386;2022-11-30T14:57:11;13.40;;;8.63;;
14472;SDS011;7322;50.872;4.386;2022-11-30T14:59:48;16.70;;;8.73;;
14472;SDS011;7322;50.872;4.386;2022-11-30T15:11:39;13.40;;;9.50;;
14472;SDS011;7322;50.872;4.386;2022-11-30T15:17:11;16.10;;;10.13;;
14472;SDS011;7322;50.872;4.386;2022-11-30T15:19:55;14.97;;;9.40;;
14472;SDS011;7322;50.872;4.386;2022-11-30T15:25:21;17.17;;;10.60;;
14472;SDS011;7322;50.872;4.386;2022-11-30T15:27:58;13.23;;;9.93;;
14472;SDS011;7322;50.872;4.386;2022-11-30T15:30:44;16.37;;;9.97;;
14472;SDS011;7322;50.872;4.386;2022-11-30T15:36:02;14.90;;;10.20;;
14472;SDS011;7322;50.872;4.386;2022-11-30T15:38:35;11.63;;;8.90;;
14472;SDS011;7322;50.872;4.386;2022-11-30T15:49:51;15.97;;;9.97;;
14472;SDS011;7322;50.872;4.386;2022-11-30T15:52:19;13.10;;;8.93;;
14472;SDS011;7322;50.872;4.386;2022-11-30T15:54:56;16.43;;;10.07;;
14472;SDS011;7322;50.872;4.386;2022-11-30T15:57:55;13.20;;;10.17;;
14472;SDS011;7322;50.872;4.386;2022-11-30T16:16:18;12.27;;;9.43;;
14472;SDS011;7322;50.872;4.386;2022-11-30T16:24:41;12.50;;;9.47;;
14472;SDS011;7322;50.872;4.386;2022-11-30T16:27:11;11.97;;;9.90;;
14472;SDS011;7322;50.872;4.386;2022-11-30T16:29:43;12.20;;;10.00;;
14472;SDS011;7322;50.872;4.386;2022-11-30T16:32:11;13.63;;;10.43;;
14472;SDS011;7322;50.872;4.386;2022-11-30T17:05:57;15.67;;;12.40;;
14472;SDS011;7322;50.872;4.386;2022-11-30T17:17:10;17.83;;;11.70;;
14472;SDS011;7322;50.872;4.386;2022-11-30T17:19:52;12.67;;;10.90;;
14472;SDS011;7322;50.872;4.386;2022-11-30T17:28:07;16.47;;;12.13;;
14472;SDS011;7322;50.872;4.386;2022-11-30T17:30:34;14.97;;;12.23;;
14472;SDS011;7322;50.872;4.386;2022-11-30T17:33:03;14.53;;;11.80;;
14472;SDS011;7322;50.872;4.386;2022-11-30T17:35:30;14.57;;;11.90;;
14472;SDS011;7322;50.872;4.386;2022-11-30T17:37:58;13.40;;;11.90;;
14472;SDS011;7322;50.872;4.386;2022-11-30T17:40:25;14.80;;;11.73;;
14472;SDS011;7322;50.872;4.386;2022-11-30T17:42:54;17.43;;;11.87;;
14472;SDS011;7322;50.872;4.386;2022-11-30T17:45:22;13.77;;;11.77;;
14472;SDS011;7322;50.872;4.386;2022-11-30T17:47:49;14.00;;;11.57;;
14472;SDS011;7322;50.872;4.386;2022-11-30T17:55:43;14.97;;;11.50;;
14472;SDS011;7322;50.872;4.386;2022-11-30T18:04:09;13.57;;;11.17;;
14472;SDS011;7322;50.872;4.386;2022-11-30T18:09:48;14.83;;;12.00;;
14472;SDS011;7322;50.872;4.386;2022-11-30T18:12:23;14.77;;;11.53;;
14472;SDS011;7322;50.872;4.386;2022-11-30T18:17:56;13.50;;;11.43;;
14472;SDS011;7322;50.872;4.386;2022-11-30T18:20:26;14.27;;;12.07;;
14472;SDS011;7322;50.872;4.386;2022-11-30T18:25:50;14.87;;;11.53;;
14472;SDS011;7322;50.872;4.386;2022-11-30T18:28:25;13.83;;;11.90;;
14472;SDS011;7322;50.872;4.386;2022-11-30T18:31:00;14.97;;;12.37;;
14472;SDS011;7322;50.872;4.386;2022-11-30T18:36:09;16.50;;;12.70;;
14472;SDS011;7322;50.872;4.386;2022-11-30T18:38:37;14.00;;;12.03;;
14472;SDS011;7322;50.872;4.386;2022-11-30T18:41:17;16.70;;;12.97;;
14472;SDS011;7322;50.872;4.386;2022-11-30T18:43:45;13.63;;;11.83;;
14472;SDS011;7322;50.872;4.386;2022-11-30T18:46:15;16.07;;;12.63;;
14472;SDS011;7322;50.872;4.386;2022-11-30T18:48:53;17.03;;;12.37;;